createdAt,value
2022-11-01T00:01:12.411Z,12.90
2022-11-01T00:03:43.355Z,12.90
2022-11-01T00:06:14.334Z,13.00
2022-11-01T00:08:45.266Z,13.10
2022-11-01T00:11:19.722Z,13.00
2022-11-01T00:13:51.076Z,12.90
2022-11-01T00:16:22.722Z,12.80
2022-11-01T00:18:53.648Z,12.90
2022-11-01T00:21:24.742Z,12.90
2022-11-01T00:23:55.743Z,12.90
2022-11-01T00:26:26.804Z,12.80
2022-11-01T00:28:57.685Z,12.80
2022-11-01T00:31:28.758Z,12.90
2022-11-01T00:34:03.751Z,12.70
2022-11-01T00:36:36.084Z,12.80
2022-11-01T00:39:07.914Z,12.70
2022-11-01T00:41:38.781Z,12.70
2022-11-01T00:44:09.655Z,12.70
2022-11-01T00:46:40.624Z,12.60
2022-11-01T00:49:11.916Z,12.60
2022-11-01T00:51:42.817Z,12.70
2022-11-01T00:54:13.652Z,12.70
2022-11-01T00:56:44.588Z,12.80
2022-11-01T00:59:15.466Z,12.90
2022-11-01T01:01:46.651Z,12.90
2022-11-01T01:04:17.728Z,12.90
2022-11-01T01:06:48.618Z,12.90
2022-11-01T01:09:19.499Z,12.80
2022-11-01T01:11:50.424Z,12.90
2022-11-01T01:14:21.394Z,12.90
2022-11-01T01:16:52.241Z,13.00
2022-11-01T01:19:23.480Z,12.90
2022-11-01T01:21:54.347Z,13.00
2022-11-01T01:24:25.215Z,13.10
2022-11-01T01:26:56.102Z,13.00
2022-11-01T01:29:27.036Z,13.00
2022-11-01T01:31:57.859Z,13.00
2022-11-01T01:34:28.724Z,13.00
2022-11-01T01:36:59.671Z,13.00
2022-11-01T01:39:30.547Z,13.00
2022-11-01T01:42:42.592Z,13.10
2022-11-01T01:45:27.498Z,13.00
2022-11-01T01:48:26.216Z,13.10
2022-11-01T01:51:02.724Z,13.10
2022-11-01T01:53:39.037Z,13.20
2022-11-01T01:56:26.553Z,13.10
2022-11-01T01:59:09.632Z,13.00
2022-11-01T02:01:41.523Z,13.00
2022-11-01T02:04:25.351Z,13.00
2022-11-01T02:06:56.770Z,13.00
2022-11-01T02:09:29.505Z,13.10
2022-11-01T02:12:03.096Z,13.10
2022-11-01T02:14:34.075Z,13.10
2022-11-01T02:17:12.334Z,13.10
2022-11-01T02:20:25.247Z,13.00
2022-11-01T02:23:51.160Z,13.00
2022-11-01T02:26:49.350Z,13.10
2022-11-01T02:30:00.761Z,13.10
2022-11-01T02:33:02.212Z,13.20
2022-11-01T02:36:03.151Z,13.10
2022-11-01T02:38:46.347Z,13.20
2022-11-01T02:41:56.230Z,13.20
2022-11-01T02:44:33.638Z,13.20
2022-11-01T02:47:06.053Z,13.20
2022-11-01T02:49:36.880Z,13.20
2022-11-01T02:52:13.244Z,13.20
2022-11-01T02:54:49.880Z,13.30
2022-11-01T02:57:34.699Z,13.40
2022-11-01T03:00:26.678Z,13.40
2022-11-01T03:03:01.355Z,13.30
2022-11-01T03:05:52.665Z,13.30
2022-11-01T03:08:30.124Z,13.20
2022-11-01T03:11:11.069Z,13.20
2022-11-01T03:14:05.155Z,13.00
2022-11-01T03:16:41.314Z,13.10
2022-11-01T03:19:45.452Z,13.10
2022-11-01T03:22:35.994Z,13.10
2022-11-01T03:25:40.050Z,13.00
2022-11-01T03:28:29.231Z,13.00
2022-11-01T03:31:06.268Z,13.00
2022-11-01T03:33:42.631Z,13.20
2022-11-01T03:36:18.237Z,13.30
2022-11-01T03:39:00.090Z,13.40
2022-11-01T03:41:36.712Z,13.30
2022-11-01T03:44:09.655Z,13.20
2022-11-01T03:46:42.280Z,13.20
2022-11-01T03:49:20.183Z,13.30
2022-11-01T03:51:51.025Z,13.10
2022-11-01T03:54:22.119Z,13.20
2022-11-01T03:56:53.507Z,13.30
2022-11-01T03:59:24.467Z,13.20
2022-11-01T04:01:55.518Z,13.30
2022-11-01T04:04:26.858Z,13.40
2022-11-01T04:06:57.729Z,13.40
2022-11-01T04:09:28.630Z,13.40
2022-11-01T04:11:59.479Z,13.40
2022-11-01T04:14:48.705Z,13.50
2022-11-01T04:17:38.242Z,13.50
2022-11-01T04:20:28.145Z,13.60
2022-11-01T04:23:08.567Z,13.60
2022-11-01T04:25:39.417Z,13.70
2022-11-01T04:28:10.262Z,13.60
2022-11-01T04:30:42.214Z,13.70
2022-11-01T04:33:13.072Z,13.70
2022-11-01T04:35:44.699Z,13.70
2022-11-01T04:38:15.892Z,13.70
2022-11-01T04:40:46.835Z,13.70
2022-11-01T04:43:17.692Z,13.80
2022-11-01T04:45:55.424Z,13.90
2022-11-01T04:48:27.688Z,13.90
2022-11-01T04:51:02.427Z,13.90
2022-11-01T04:53:33.371Z,13.80
2022-11-01T04:56:06.656Z,13.90
2022-11-01T04:58:42.953Z,13.90
2022-11-01T05:01:17.306Z,14.00
2022-11-01T05:03:48.791Z,14.10
2022-11-01T05:06:19.672Z,14.10
2022-11-01T05:08:50.551Z,14.10
2022-11-01T05:11:25.531Z,14.10
2022-11-01T05:13:56.595Z,14.20
2022-11-01T05:16:27.451Z,14.10
2022-11-01T05:18:58.322Z,14.20
2022-11-01T05:21:29.185Z,14.20
2022-11-01T05:24:00.143Z,14.20
2022-11-01T05:26:31.017Z,14.20
2022-11-01T05:29:08.859Z,14.30
2022-11-01T05:31:49.277Z,14.20
2022-11-01T05:34:20.478Z,14.20
2022-11-01T05:36:51.350Z,14.20
2022-11-01T05:39:22.383Z,14.30
2022-11-01T05:41:55.555Z,14.40
2022-11-01T05:44:29.618Z,14.50
2022-11-01T05:47:04.443Z,14.50
2022-11-01T05:49:35.287Z,14.50
2022-11-01T05:52:06.183Z,14.50
2022-11-01T05:54:37.042Z,14.50
2022-11-01T05:57:07.920Z,14.60
2022-11-01T05:59:38.773Z,14.70
2022-11-01T06:02:09.750Z,14.70
2022-11-01T06:04:40.652Z,14.80
2022-11-01T06:07:11.590Z,14.80
2022-11-01T06:09:42.514Z,14.80
2022-11-01T06:12:13.415Z,14.80
2022-11-01T06:14:44.254Z,14.80
2022-11-01T06:17:15.139Z,14.70
2022-11-01T06:19:46.168Z,14.80
2022-11-01T06:22:17.033Z,14.80
2022-11-01T06:24:47.943Z,14.70
2022-11-01T06:27:18.808Z,14.70
2022-11-01T06:29:49.649Z,14.60
2022-11-01T06:32:20.522Z,14.60
2022-11-01T06:34:51.411Z,14.70
2022-11-01T06:37:22.341Z,14.70
2022-11-01T06:39:53.198Z,14.70
2022-11-01T06:42:24.103Z,14.60
2022-11-01T06:44:54.984Z,14.50
2022-11-01T06:47:26.133Z,14.50
2022-11-01T06:49:56.969Z,14.60
2022-11-01T06:52:27.935Z,14.70
2022-11-01T06:54:59.049Z,14.70
2022-11-01T06:57:29.972Z,14.60
2022-11-01T07:00:00.857Z,14.60
2022-11-01T07:02:32.167Z,14.60
2022-11-01T07:05:03.076Z,14.60
2022-11-01T07:07:33.948Z,14.60
2022-11-01T07:10:05.695Z,14.60
2022-11-01T07:12:36.534Z,14.60
2022-11-01T07:15:08.005Z,14.70
2022-11-01T07:17:38.857Z,14.70
2022-11-01T07:20:10.424Z,14.80
2022-11-01T07:22:43.405Z,14.80
2022-11-01T07:25:14.295Z,14.90
2022-11-01T07:27:45.197Z,14.90
2022-11-01T07:30:16.090Z,15.00
2022-11-01T07:32:47.141Z,14.90
2022-11-01T07:35:18.030Z,15.00
2022-11-01T07:37:48.901Z,15.00
2022-11-01T07:40:20.079Z,15.00
2022-11-01T07:42:50.980Z,15.00
2022-11-01T07:45:22.519Z,15.20
2022-11-01T07:47:54.128Z,15.30
2022-11-01T07:50:24.986Z,15.50
2022-11-01T07:53:10.386Z,15.50
2022-11-01T07:55:41.634Z,15.50
2022-11-01T07:58:13.549Z,15.60
2022-11-01T08:00:45.545Z,15.60
2022-11-01T08:03:19.247Z,15.60
2022-11-01T08:05:50.119Z,15.60
2022-11-01T08:08:21.031Z,15.60
2022-11-01T08:10:51.889Z,15.60
2022-11-01T08:13:24.846Z,15.60
2022-11-01T08:15:56.219Z,15.60
2022-11-01T08:18:27.120Z,15.60
2022-11-01T08:20:59.601Z,15.70
2022-11-01T08:23:30.559Z,15.70
2022-11-01T08:26:04.004Z,15.70
2022-11-01T08:28:34.933Z,15.80
2022-11-01T08:31:09.330Z,15.80
2022-11-01T08:33:40.238Z,15.90
2022-11-01T08:36:11.067Z,15.90
2022-11-01T08:38:42.005Z,16.00
2022-11-01T08:41:12.844Z,16.00
2022-11-01T08:43:43.714Z,16.00
2022-11-01T08:46:14.624Z,16.00
2022-11-01T08:48:47.899Z,16.10
2022-11-01T08:51:25.654Z,16.20
2022-11-01T08:53:57.411Z,16.20
2022-11-01T08:56:28.842Z,16.30
2022-11-01T08:59:00.121Z,16.30
2022-11-01T09:01:31.215Z,16.40
2022-11-01T09:04:02.505Z,16.40
2022-11-01T09:06:36.306Z,16.50
2022-11-01T09:09:08.150Z,16.40
2022-11-01T09:11:39.478Z,16.40
2022-11-01T09:14:10.528Z,16.40
2022-11-01T09:16:41.383Z,16.50
2022-11-01T09:19:12.354Z,16.50
2022-11-01T09:21:47.138Z,16.50
2022-11-01T09:24:18.254Z,16.60
2022-11-01T09:26:49.136Z,16.60
2022-11-01T09:29:21.543Z,16.70
2022-11-01T09:31:54.194Z,16.60
2022-11-01T09:34:25.033Z,16.70
2022-11-01T09:36:56.425Z,16.70
2022-11-01T09:39:27.520Z,16.70
2022-11-01T09:42:16.195Z,16.80
2022-11-01T09:44:52.042Z,16.90
2022-11-01T09:47:26.073Z,17.10
2022-11-01T09:50:34.968Z,17.30
2022-11-01T09:53:20.623Z,17.50
2022-11-01T09:56:12.770Z,17.70
2022-11-01T09:59:14.697Z,18.00
2022-11-01T10:02:19.495Z,18.10
2022-11-01T10:05:03.254Z,18.30
2022-11-01T10:07:43.046Z,18.20
2022-11-01T10:10:35.760Z,18.30
2022-11-01T10:13:26.401Z,18.40
2022-11-01T10:16:37.989Z,18.50
2022-11-01T10:19:21.883Z,18.60
2022-11-01T10:22:01.311Z,18.60
2022-11-01T10:25:02.174Z,18.70
2022-11-01T10:28:06.513Z,18.90
2022-11-01T10:31:03.317Z,19.00
2022-11-01T10:33:40.744Z,18.90
2022-11-01T10:39:53.169Z,18.80
2022-11-01T10:42:12.755Z,18.70
2022-11-01T10:44:54.592Z,18.80
2022-11-01T10:47:26.666Z,18.90
2022-11-01T10:50:06.504Z,19.00
2022-11-01T10:52:57.052Z,19.00
2022-11-01T10:55:46.074Z,19.00
2022-11-01T10:58:31.854Z,18.90
2022-11-01T11:01:07.385Z,18.80
2022-11-01T11:03:41.459Z,18.70
2022-11-01T11:06:15.510Z,18.60
2022-11-01T11:08:51.846Z,18.50
2022-11-01T11:11:43.379Z,18.60
2022-11-01T11:14:15.859Z,18.70
2022-11-01T11:16:55.979Z,18.90
2022-11-01T11:19:29.960Z,18.80
2022-11-01T11:22:06.594Z,18.90
2022-11-01T11:24:39.598Z,18.90
2022-11-01T11:27:37.108Z,19.00
2022-11-01T11:30:10.275Z,19.00
2022-11-01T11:32:49.068Z,19.10
2022-11-01T11:35:21.796Z,19.10
2022-11-01T11:38:01.100Z,19.10
2022-11-01T11:40:41.383Z,19.00
2022-11-01T11:43:34.228Z,19.00
2022-11-01T11:46:21.677Z,19.00
2022-11-01T11:48:59.198Z,19.10
2022-11-01T11:51:34.571Z,19.20
2022-11-01T11:54:21.950Z,19.30
2022-11-01T11:57:13.143Z,19.20
2022-11-01T12:02:35.951Z,18.90
2022-11-01T12:05:15.388Z,18.80
2022-11-01T12:07:49.162Z,18.60
2022-11-01T12:10:39.153Z,18.50
2022-11-01T12:13:32.554Z,18.30
2022-11-01T12:16:15.961Z,18.30
2022-11-01T12:18:59.767Z,18.30
2022-11-01T12:21:36.662Z,18.20
2022-11-01T12:24:28.104Z,18.10
2022-11-01T12:27:05.303Z,18.10
2022-11-01T12:30:18.834Z,18.10
2022-11-01T12:32:59.693Z,18.00
2022-11-01T12:35:36.562Z,18.00
2022-11-01T12:38:31.975Z,17.90
2022-11-01T12:41:29.547Z,17.80
2022-11-01T12:44:37.938Z,17.80
2022-11-01T12:47:18.403Z,17.60
2022-11-01T12:50:05.226Z,17.50
2022-11-01T12:53:06.218Z,17.50
2022-11-01T12:55:42.401Z,17.50
2022-11-01T12:58:18.841Z,17.80
2022-11-01T13:01:31.632Z,17.70
2022-11-01T13:04:07.268Z,17.60
2022-11-01T13:06:59.626Z,17.50
2022-11-01T13:10:12.397Z,17.50
2022-11-01T13:13:07.989Z,17.60
2022-11-01T13:16:02.857Z,17.40
2022-11-01T13:18:54.014Z,17.40
2022-11-01T13:21:49.924Z,17.40
2022-11-01T13:24:39.782Z,17.40
2022-11-01T13:27:19.260Z,17.50
2022-11-01T13:29:54.161Z,17.70
2022-11-01T13:32:52.413Z,17.70
2022-11-01T13:35:40.163Z,17.80
2022-11-01T13:38:20.000Z,17.80
2022-11-01T13:41:07.933Z,18.00
2022-11-01T13:43:47.583Z,18.00
2022-11-01T13:46:48.494Z,17.90
2022-11-01T13:50:02.831Z,17.90
2022-11-01T13:52:35.873Z,17.80
2022-11-01T13:55:25.701Z,17.80
2022-11-01T13:57:56.605Z,17.90
2022-11-01T14:00:36.596Z,17.80
2022-11-01T14:03:35.062Z,17.80
2022-11-01T14:06:13.970Z,17.80
2022-11-01T14:08:49.444Z,17.90
2022-11-01T14:11:41.979Z,17.80
2022-11-01T14:14:40.566Z,18.10
2022-11-01T14:17:20.276Z,18.10
2022-11-01T14:19:56.908Z,18.10
2022-11-01T14:22:33.559Z,17.80
2022-11-01T14:25:13.526Z,17.90
2022-11-01T14:28:17.321Z,18.20
2022-11-01T14:30:50.418Z,18.10
2022-11-01T14:33:22.613Z,18.10
2022-11-01T14:35:58.020Z,17.80
2022-11-01T14:38:34.290Z,17.60
2022-11-01T14:41:07.272Z,17.50
2022-11-01T14:43:59.605Z,17.50
2022-11-01T14:46:34.998Z,17.50
2022-11-01T14:49:24.826Z,17.60
2022-11-01T14:52:26.563Z,17.80
2022-11-01T14:55:25.031Z,17.70
2022-11-01T14:58:28.171Z,17.70
2022-11-01T15:01:07.397Z,17.60
2022-11-01T15:03:38.400Z,17.40
2022-11-01T15:06:27.682Z,17.30
2022-11-01T15:09:03.747Z,17.30
2022-11-01T15:11:35.344Z,17.10
2022-11-01T15:14:08.235Z,17.00
2022-11-01T15:16:43.092Z,16.90
2022-11-01T15:19:27.921Z,16.90
2022-11-01T15:22:03.362Z,16.90
2022-11-01T15:24:37.568Z,16.80
2022-11-01T15:27:16.783Z,16.70
2022-11-01T15:29:48.921Z,16.60
2022-11-01T15:32:29.680Z,16.50
2022-11-01T15:35:23.777Z,16.40
2022-11-01T15:37:54.969Z,16.40
2022-11-01T15:40:33.136Z,16.40
2022-11-01T15:43:04.872Z,16.30
2022-11-01T15:45:38.657Z,16.40
2022-11-01T15:48:18.146Z,16.30
2022-11-01T15:50:57.506Z,16.30
2022-11-01T15:53:37.999Z,16.30
2022-11-01T15:56:20.349Z,16.20
2022-11-01T15:58:56.720Z,16.20
2022-11-01T16:01:31.366Z,16.20
2022-11-01T16:04:09.820Z,16.10
2022-11-01T16:06:58.036Z,16.00
2022-11-01T16:09:40.318Z,16.00
2022-11-01T16:12:25.909Z,15.90
2022-11-01T16:15:07.602Z,15.80
2022-11-01T16:17:42.258Z,15.70
2022-11-01T16:20:37.314Z,15.60
2022-11-01T16:23:15.855Z,15.60
2022-11-01T16:26:07.820Z,15.40
2022-11-01T16:28:52.248Z,15.30
2022-11-01T16:31:28.868Z,15.10
2022-11-01T16:33:59.740Z,15.00
2022-11-01T16:36:41.696Z,14.90
2022-11-01T16:39:32.372Z,14.70
2022-11-01T16:42:09.607Z,14.70
2022-11-01T16:44:40.865Z,14.70
2022-11-01T16:47:15.382Z,14.50
2022-11-01T16:49:49.805Z,14.50
2022-11-01T16:52:21.910Z,14.50
2022-11-01T16:54:55.795Z,14.40
2022-11-01T16:57:29.041Z,14.40
2022-11-01T17:00:00.021Z,14.30
2022-11-01T17:02:31.328Z,14.20
2022-11-01T17:05:21.020Z,14.10
2022-11-01T17:07:52.046Z,14.10
2022-11-01T17:10:31.093Z,14.00
2022-11-01T17:13:04.181Z,14.00
2022-11-01T17:15:44.698Z,14.00
2022-11-01T17:18:27.919Z,14.00
2022-11-01T17:21:01.257Z,13.90
2022-11-01T17:23:34.166Z,13.90
2022-11-01T17:26:08.606Z,13.80
2022-11-01T17:28:39.648Z,13.80
2022-11-01T17:31:10.577Z,13.80
2022-11-01T17:33:41.540Z,13.70
2022-11-01T17:36:17.190Z,13.60
2022-11-01T17:38:50.428Z,13.60
2022-11-01T17:41:21.449Z,13.60
2022-11-01T17:43:52.395Z,13.50
2022-11-01T17:46:26.262Z,13.50
2022-11-01T17:48:57.129Z,13.50
2022-11-01T17:51:28.116Z,13.70
2022-11-01T17:53:59.157Z,13.60
2022-11-01T17:56:30.118Z,13.60
2022-11-01T17:59:04.806Z,13.60
2022-11-01T18:01:40.807Z,13.50
2022-11-01T18:04:11.730Z,13.50
2022-11-01T18:06:43.773Z,13.50
2022-11-01T18:09:24.237Z,13.50
2022-11-01T18:12:34.820Z,13.60
2022-11-01T18:15:18.481Z,13.60
2022-11-01T18:18:43.026Z,13.50
2022-11-01T18:21:25.635Z,13.50
2022-11-01T18:24:00.867Z,13.60
2022-11-01T18:26:32.470Z,13.40
2022-11-01T18:29:26.604Z,13.50
2022-11-01T18:32:46.993Z,13.50
2022-11-01T18:35:34.171Z,13.40
2022-11-01T18:38:30.314Z,13.30
2022-11-01T18:41:12.055Z,13.20
2022-11-01T18:43:46.907Z,13.10
2022-11-01T18:46:27.546Z,13.00
2022-11-01T18:49:02.043Z,12.90
2022-11-01T18:51:39.898Z,12.90
2022-11-01T18:54:13.509Z,12.80
2022-11-01T18:56:50.805Z,12.70
2022-11-01T18:59:32.640Z,12.70
2022-11-01T19:02:15.173Z,12.90
2022-11-01T19:04:50.520Z,12.80
2022-11-01T19:07:39.441Z,12.70
2022-11-01T19:10:22.007Z,12.60
2022-11-01T19:12:56.139Z,12.50
2022-11-01T19:15:29.852Z,12.50
2022-11-01T19:18:05.559Z,12.30
2022-11-01T19:21:01.157Z,12.20
2022-11-01T19:23:43.567Z,12.10
2022-11-01T19:26:35.635Z,12.20
2022-11-01T19:29:18.637Z,12.20
2022-11-01T19:31:54.704Z,12.10
2022-11-01T19:34:34.833Z,12.00
2022-11-01T19:37:24.635Z,12.00
2022-11-01T19:39:56.972Z,12.00
2022-11-01T19:42:32.758Z,12.00
2022-11-01T19:45:25.921Z,11.90
2022-11-01T19:47:58.396Z,11.80
2022-11-01T19:50:46.502Z,11.80
2022-11-01T19:53:30.054Z,11.90
2022-11-01T19:56:04.085Z,11.90
2022-11-01T19:59:01.765Z,11.80
2022-11-01T20:01:46.369Z,11.90
2022-11-01T20:04:27.871Z,11.80
2022-11-01T20:07:10.222Z,11.70
2022-11-01T20:09:41.491Z,11.70
2022-11-01T20:12:12.550Z,11.70
2022-11-01T20:14:43.387Z,11.70
2022-11-01T20:17:20.466Z,11.70
2022-11-01T20:19:51.587Z,11.60
2022-11-01T20:22:23.163Z,11.60
2022-11-01T20:24:54.032Z,11.60
2022-11-01T20:27:24.905Z,11.50
2022-11-01T20:29:55.824Z,11.50
2022-11-01T20:32:26.764Z,11.40
2022-11-01T20:34:57.878Z,11.40
2022-11-01T20:37:29.200Z,11.30
2022-11-01T20:40:00.313Z,11.40
2022-11-01T20:42:31.357Z,11.30
2022-11-01T20:45:02.228Z,11.20
2022-11-01T20:47:36.286Z,11.20
2022-11-01T20:50:08.174Z,11.10
2022-11-01T20:52:40.241Z,11.10
2022-11-01T20:55:13.372Z,11.10
2022-11-01T20:57:44.847Z,11.10
2022-11-01T21:00:18.477Z,11.00
2022-11-01T21:02:49.887Z,11.00
2022-11-01T21:05:30.194Z,10.90
2022-11-01T21:08:25.382Z,10.80
2022-11-01T21:11:03.541Z,10.70
2022-11-01T21:13:46.187Z,10.70
2022-11-01T21:16:24.775Z,10.60
2022-11-01T21:19:02.289Z,10.50
2022-11-01T21:21:45.309Z,10.50
2022-11-01T21:24:30.971Z,10.90
2022-11-01T21:27:11.001Z,10.70
2022-11-01T21:29:45.614Z,10.50
2022-11-01T21:32:25.316Z,10.50
2022-11-01T21:34:58.246Z,10.50
2022-11-01T21:37:30.054Z,10.40
2022-11-01T21:40:23.048Z,10.40
2022-11-01T21:42:55.577Z,10.40
2022-11-01T21:45:33.314Z,10.40
2022-11-01T21:48:26.974Z,10.40
2022-11-01T21:50:57.837Z,10.30
2022-11-01T21:53:28.722Z,10.30
2022-11-01T21:56:19.934Z,10.20
2022-11-01T21:58:50.833Z,10.20
2022-11-01T22:01:21.772Z,10.10
2022-11-01T22:03:52.757Z,10.10
2022-11-01T22:06:23.747Z,10.10
2022-11-01T22:08:54.692Z,10.10
2022-11-01T22:11:29.054Z,10.10
2022-11-01T22:14:04.519Z,10.10
2022-11-01T22:16:35.929Z,10.10
2022-11-01T22:19:07.546Z,10.30
2022-11-01T22:21:38.751Z,10.50
2022-11-01T22:24:11.899Z,10.50
2022-11-01T22:26:48.382Z,10.50
2022-11-01T22:29:19.318Z,10.40
2022-11-01T22:31:50.275Z,10.40
2022-11-01T22:34:21.334Z,10.40
2022-11-01T22:36:52.185Z,10.30
2022-11-01T22:39:25.412Z,10.30
2022-11-01T22:41:56.319Z,10.40
2022-11-01T22:44:30.672Z,10.30
2022-11-01T22:47:03.071Z,10.30
2022-11-01T22:50:02.980Z,10.20
2022-11-01T22:52:47.996Z,10.30
2022-11-01T22:55:29.493Z,10.30
2022-11-01T22:58:23.209Z,10.20
2022-11-01T23:01:00.758Z,10.20
2022-11-01T23:03:40.787Z,10.10
2022-11-01T23:06:33.156Z,10.10
2022-11-01T23:09:18.559Z,10.00
2022-11-01T23:12:13.867Z,10.00
2022-11-01T23:14:47.048Z,9.90
2022-11-01T23:17:27.285Z,9.90
2022-11-01T23:20:01.438Z,9.90
2022-11-01T23:22:35.932Z,9.90
2022-11-01T23:25:09.176Z,9.90
2022-11-01T23:27:44.554Z,9.80
2022-11-01T23:30:15.887Z,9.80
2022-11-01T23:32:47.469Z,9.80
2022-11-01T23:35:21.764Z,9.80
2022-11-01T23:37:57.496Z,9.80
2022-11-01T23:40:33.789Z,9.70
2022-11-01T23:43:27.975Z,9.70
2022-11-01T23:45:59.613Z,9.70
2022-11-01T23:48:31.289Z,9.70
2022-11-01T23:51:02.907Z,9.70
2022-11-01T23:53:39.578Z,9.60
2022-11-01T23:56:14.623Z,9.70
2022-11-01T23:58:53.409Z,9.60
